Time;durP1;ratioP1;P1;durP2;ratioP2;P2;SDS_P1;SDS_P2;PMS_P1;PMS_P2;Temp;Humidity;BMP_temperature;BMP_pressure;BME280_temperature;BME280_humidity;BME280_pressure;Samples;Min_cycle;Max_cycle;Signal;HPM_P1;HPM_P2
2022/05/14 00:00:25;;;;;;;;;15.75;13.25;;;;;19.73;60.17;99534.41;5094732;27;45442;-61
2022/05/14 00:02:51;;;;;;;;;21.25;17.00;;;;;19.69;60.08;99532.91;5094980;27;45794;-61
2022/05/14 00:05:19;;;;;;;;;17.75;16.75;;;;;19.68;60.56;99533.88;5092965;27;45533;-61
2022/05/14 00:07:45;;;;;;;;;21.00;20.00;;;;;19.63;60.72;99535.16;5078930;27;46700;-61
2022/05/14 00:10:11;;;;;;;;;15.75;15.75;;;;;19.59;62.13;99533.69;5078514;27;45433;-61
2022/05/14 00:15:20;;;;;;;;;18.75;17.25;;;;;19.51;61.64;99536.88;5094291;27;45471;-61
2022/05/14 00:17:47;;;;;;;;;19.50;18.50;;;;;19.47;62.47;99533.53;5077137;27;45666;-61
2022/05/14 00:20:13;;;;;;;;;23.00;18.25;;;;;19.46;62.58;99531.81;5080919;27;45548;-61
2022/05/14 00:22:38;;;;;;;;;20.50;19.50;;;;;19.45;62.83;99530.09;5094734;27;45477;-61
2022/05/14 00:25:05;;;;;;;;;23.25;20.25;;;;;19.46;63.00;99537.16;5094207;27;45448;-61
2022/05/14 00:27:30;;;;;;;;;22.00;19.50;;;;;19.46;62.75;99531.81;5090147;27;45521;-61
2022/05/14 00:29:56;;;;;;;;;22.25;19.50;;;;;19.45;62.61;99532.78;5059158;27;45410;-61
2022/05/14 00:32:22;;;;;;;;;23.25;20.75;;;;;19.43;62.91;99531.19;5094573;27;45486;-61
2022/05/14 00:34:47;;;;;;;;;23.00;22.25;;;;;19.42;63.00;99530.34;5091099;27;45550;-61
2022/05/14 00:37:13;;;;;;;;;19.75;19.00;;;;;19.41;63.05;99531.31;5076347;27;46002;-61
2022/05/14 00:39:38;;;;;;;;;22.25;19.75;;;;;19.40;63.15;99526.06;5079662;27;45406;-61
2022/05/14 00:42:04;;;;;;;;;22.00;20.00;;;;;19.39;63.16;99527.88;5084268;27;45960;-61
2022/05/14 00:44:30;;;;;;;;;22.00;20.50;;;;;19.40;62.81;99531.41;5078247;28;45376;-61
2022/05/14 00:47:01;;;;;;;;;22.75;22.75;;;;;19.37;63.10;99531.63;5085214;27;46146;-61
2022/05/14 00:49:29;;;;;;;;;19.50;18.75;;;;;19.33;62.86;99535.47;5092598;27;45400;-61
2022/05/14 00:51:55;;;;;;;;;20.00;19.25;;;;;19.27;62.98;99534.06;5083714;27;45365;-61
2022/05/14 00:54:32;;;;;;;;;21.25;19.50;;;;;19.24;62.66;99528.09;5078046;28;45366;-61
2022/05/14 00:57:10;;;;;;;;;21.50;18.75;;;;;19.22;62.51;99530.88;5078965;27;45375;-61
2022/05/14 00:59:36;;;;;;;;;19.75;19.00;;;;;19.16;62.68;99528.59;5093122;27;45475;-61
2022/05/14 01:02:05;;;;;;;;;17.25;16.50;;;;;19.08;63.44;99530.97;5096420;27;45603;-61
2022/05/14 01:04:30;;;;;;;;;18.75;17.50;;;;;19.02;63.63;99532.22;5086947;27;45557;-61
2022/05/14 01:07:07;;;;;;;;;22.00;20.00;;;;;19.00;64.05;99530.63;5097038;27;45377;-62
2022/05/14 01:09:35;;;;;;;;;16.50;16.00;;;;;18.97;64.07;99533.50;5091256;27;45298;-61
2022/05/14 01:12:11;;;;;;;;;22.75;19.25;;;;;18.95;64.00;99530.91;5097177;27;45432;-61
2022/05/14 01:14:36;;;;;;;;;16.50;16.50;;;;;18.94;63.80;99533.69;5095217;27;45572;-61
2022/05/14 01:17:02;;;;;;;;;17.00;16.00;;;;;18.92;63.52;99530.28;5090369;27;46574;-61
2022/05/14 01:19:27;;;;;;;;;20.50;19.50;;;;;18.90;63.47;99524.19;5097255;27;45431;-61
2022/05/14 01:22:24;;;;;;;;;16.50;15.75;;;;;18.86;63.49;99528.03;5094474;27;45501;-61
2022/05/14 01:27:53;;;;;;;;;18.50;14.75;;;;;18.79;63.82;99524.91;5094176;27;45849;-61
2022/05/14 01:30:30;;;;;;;;;18.25;17.75;;;;;18.75;64.35;99520.75;5082923;27;45404;-61
2022/05/14 01:33:04;;;;;;;;;17.00;16.25;;;;;18.71;64.67;99529.91;5091168;27;45538;-61
2022/05/14 01:35:34;;;;;;;;;20.50;18.75;;;;;18.69;64.66;99530.00;5096259;27;45551;-61
2022/05/14 01:38:01;;;;;;;;;18.00;16.75;;;;;18.65;65.16;99531.16;5088044;27;45652;-61
2022/05/14 01:40:27;;;;;;;;;19.75;17.25;;;;;18.62;65.76;99525.16;5092935;27;45393;-61
2022/05/14 01:43:01;;;;;;;;;18.25;17.25;;;;;18.58;65.98;99520.97;5097031;27;45467;-61
2022/05/14 01:45:27;;;;;;;;;17.00;16.25;;;;;18.50;65.46;99518.81;5084392;27;45419;-61
2022/05/14 01:47:52;;;;;;;;;20.00;19.50;;;;;18.47;65.31;99525.19;5079022;27;47895;-61
2022/05/14 01:50:18;;;;;;;;;20.00;18.00;;;;;18.44;65.58;99521.88;5095796;27;45488;-61
2022/05/14 01:52:52;;;;;;;;;18.25;18.25;;;;;18.43;65.17;99517.53;5088286;27;45367;-61
2022/05/14 01:55:18;;;;;;;;;18.50;17.75;;;;;18.43;65.41;99518.34;5086344;27;45498;-61
2022/05/14 01:57:43;;;;;;;;;18.25;18.25;;;;;18.43;65.50;99520.19;5083334;27;46045;-61
2022/05/14 02:00:12;;;;;;;;;18.00;16.50;;;;;18.44;65.18;99522.72;5078280;27;45546;-61
2022/05/14 02:02:38;;;;;;;;;16.25;16.00;;;;;18.44;65.45;99521.88;5085950;27;45461;-61
2022/05/14 02:05:14;;;;;;;;;19.25;18.50;;;;;18.42;64.85;99524.66;5081145;27;45350;-61
2022/05/14 02:07:39;;;;;;;;;18.00;17.25;;;;;18.42;65.17;99521.16;5091290;27;45471;-61
2022/05/14 02:10:05;;;;;;;;;18.75;16.75;;;;;18.41;65.39;99520.28;5087069;27;45364;-61
2022/05/14 02:12:30;;;;;;;;;19.75;17.25;;;;;18.43;64.95;99517.53;5096427;27;45481;-61
2022/05/14 02:14:56;;;;;;;;;16.75;16.75;;;;;18.42;64.85;99511.31;5096560;27;45484;-61
2022/05/14 02:17:21;;;;;;;;;16.75;14.25;;;;;18.40;65.24;99517.72;5094725;27;46049;-61
2022/05/14 02:19:48;;;;;;;;;17.75;16.75;;;;;18.38;65.35;99516.94;5083667;27;45464;-61
2022/05/14 02:22:13;;;;;;;;;19.00;18.75;;;;;18.38;65.09;99514.28;5085518;27;45356;-61
2022/05/14 02:24:39;;;;;;;;;16.00;16.00;;;;;18.35;65.50;99515.34;5092366;27;45338;-61
2022/05/14 02:27:05;;;;;;;;;17.50;14.75;;;;;18.32;65.19;99515.53;5095556;27;45439;-61
2022/05/14 02:29:50;;;;;;;;;16.50;14.75;;;;;18.28;65.71;99513.16;5077461;27;45468;-61
2022/05/14 02:32:26;;;;;;;;;25.25;20.75;;;;;18.28;66.01;99515.81;5095719;27;45405;-61
2022/05/14 02:34:53;;;;;;;;;18.25;18.25;;;;;18.25;66.02;99508.03;5095859;27;45659;-60
2022/05/14 02:37:22;;;;;;;;;20.75;19.50;;;;;18.24;65.95;99509.00;5080609;27;46162;-61
2022/05/14 02:39:48;;;;;;;;;16.25;14.75;;;;;18.20;66.28;99503.00;5085224;27;45422;-61
2022/05/14 02:42:13;;;;;;;;;20.00;17.00;;;;;18.19;66.18;99508.44;5081951;27;45409;-61
2022/05/14 02:44:39;;;;;;;;;16.25;16.00;;;;;18.17;65.97;99507.66;5076106;27;45342;-61
2022/05/14 02:47:04;;;;;;;;;19.00;18.25;;;;;18.15;65.86;99507.78;5095354;27;45625;-61
2022/05/14 02:49:30;;;;;;;;;15.50;14.50;;;;;18.12;66.44;99505.28;5080241;27;45395;-61
2022/05/14 02:52:05;;;;;;;;;19.50;19.00;;;;;18.10;66.26;99509.88;5092271;27;45761;-61
2022/05/14 02:54:31;;;;;;;;;19.50;18.75;;;;;18.11;66.01;99508.91;5078703;27;45696;-61
2022/05/14 02:56:56;;;;;;;;;19.25;17.50;;;;;18.11;65.71;99511.59;5084926;27;45421;-61
2022/05/14 02:59:22;;;;;;;;;19.75;15.25;;;;;18.07;66.44;99504.75;5086531;27;45445;-61
2022/05/14 03:01:50;;;;;;;;;19.25;18.00;;;;;18.02;66.71;99507.72;5076580;27;45614;-61
2022/05/14 03:04:37;;;;;;;;;20.75;20.50;;;;;18.00;66.82;99504.28;5093206;27;45507;-61
2022/05/14 03:07:03;;;;;;;;;19.50;19.25;;;;;17.96;66.82;99502.75;5084595;27;46304;-61
2022/05/14 03:09:29;;;;;;;;;17.25;17.25;;;;;17.93;67.11;99500.28;5094563;27;45366;-61
2022/05/14 03:11:54;;;;;;;;;19.50;17.50;;;;;17.88;67.25;99502.41;5071812;28;46104;-61
2022/05/14 03:14:29;;;;;;;;;17.75;16.75;;;;;17.84;67.83;99502.69;5092697;27;45550;-61
2022/05/14 03:16:54;;;;;;;;;22.50;22.00;;;;;17.75;67.46;99507.69;5095667;27;45328;-62
2022/05/14 03:19:20;;;;;;;;;19.00;17.75;;;;;17.71;68.14;99508.81;5089219;27;45443;-61
2022/05/14 03:21:54;;;;;;;;;21.25;19.25;;;;;17.66;67.89;99510.91;5084070;27;45888;-60
2022/05/14 03:24:20;;;;;;;;;20.50;17.00;;;;;17.64;68.08;99510.13;5094601;27;45512;-61
2022/05/14 03:26:46;;;;;;;;;18.00;18.00;;;;;17.64;67.99;99501.28;5094530;27;45580;-61
2022/05/14 03:29:12;;;;;;;;;23.25;21.00;;;;;17.67;68.24;99506.44;5094678;27;45635;-61
2022/05/14 03:31:47;;;;;;;;;25.00;19.25;;;;;17.68;68.39;99509.00;5086914;27;45370;-61
2022/05/14 03:34:13;;;;;;;;;23.75;17.75;;;;;17.70;68.51;99499.09;5083958;27;45591;-61
2022/05/14 03:36:40;;;;;;;;;21.50;19.75;;;;;17.70;68.32;99507.09;5089438;27;45415;-61
2022/05/14 03:39:07;;;;;;;;;20.25;18.25;;;;;17.69;68.50;99508.06;5081056;27;45562;-61
2022/05/14 03:41:33;;;;;;;;;20.00;17.75;;;;;17.67;68.17;99509.09;5091489;27;45344;-61
2022/05/14 03:43:58;;;;;;;;;23.00;20.25;;;;;17.66;68.41;99507.38;5095319;27;45563;-61
2022/05/14 03:46:33;;;;;;;;;20.75;19.00;;;;;17.66;68.49;99513.56;5094704;27;45623;-60
2022/05/14 03:48:58;;;;;;;;;19.75;17.25;;;;;17.64;68.51;99502.13;5094556;27;45453;-61
2022/05/14 03:51:24;;;;;;;;;16.50;16.50;;;;;17.63;68.43;99512.88;5065143;28;45542;-61
2022/05/14 03:53:50;;;;;;;;;23.00;19.00;;;;;17.60;68.60;99510.38;5074866;28;45525;-61
2022/05/14 03:56:15;;;;;;;;;21.50;20.25;;;;;17.57;68.81;99514.13;5088273;27;45493;-61
2022/05/14 03:58:41;;;;;;;;;18.25;15.00;;;;;17.56;68.54;99511.56;5091269;27;45428;-61
2022/05/14 04:01:06;;;;;;;;;22.00;17.25;;;;;17.61;68.96;99515.63;5086469;27;45653;-60
2022/05/14 04:03:34;;;;;;;;;21.75;18.25;;;;;17.68;68.75;99514.34;5082566;27;45424;-60
2022/05/14 04:06:00;;;;;;;;;22.00;20.25;;;;;17.69;68.16;99517.84;5094530;27;46482;-60
2022/05/14 04:08:26;;;;;;;;;23.25;19.75;;;;;17.65;68.16;99517.19;5092159;27;45995;-60
2022/05/14 04:10:51;;;;;;;;;21.50;16.00;;;;;17.64;68.41;99518.13;5084341;27;45320;-60
2022/05/14 04:13:17;;;;;;;;;24.00;22.50;;;;;17.62;68.45;99516.47;5076804;27;45546;-60
2022/05/14 04:15:42;;;;;;;;;17.75;16.25;;;;;17.64;68.57;99518.13;5075250;27;47372;-60
2022/05/14 04:18:09;;;;;;;;;16.50;16.00;;;;;17.65;68.84;99519.84;5096738;27;45393;-60
2022/05/14 04:20:35;;;;;;;;;17.50;16.00;;;;;17.67;68.81;99519.75;5078815;27;45356;-60
2022/05/14 04:23:02;;;;;;;;;18.25;18.25;;;;;17.66;68.48;99523.38;5097635;27;45393;-60
2022/05/14 04:25:28;;;;;;;;;22.50;21.75;;;;;17.60;68.38;99521.91;5095845;27;47489;-60
2022/05/14 04:27:53;;;;;;;;;21.50;18.75;;;;;17.53;69.07;99517.94;5095377;27;45432;-60
2022/05/14 04:30:19;;;;;;;;;18.50;17.50;;;;;17.50;69.60;99530.59;5096920;27;45316;-60
2022/05/14 04:32:54;;;;;;;;;24.75;24.00;;;;;17.49;68.92;99523.53;5097275;27;45214;-60
2022/05/14 04:35:20;;;;;;;;;19.75;18.50;;;;;17.50;69.07;99530.59;5089040;27;46364;-60
2022/05/14 04:37:45;;;;;;;;;20.50;17.50;;;;;17.48;69.54;99533.34;5092761;27;45456;-60
2022/05/14 04:40:12;;;;;;;;;24.00;23.00;;;;;17.52;69.43;99539.34;5093661;27;45524;-60
2022/05/14 04:42:38;;;;;;;;;22.00;19.75;;;;;17.54;69.21;99535.66;5084138;27;45719;-60
2022/05/14 04:45:10;;;;;;;;;17.75;17.75;;;;;17.57;69.37;99534.59;5090550;27;46332;-60
2022/05/14 04:47:39;;;;;;;;;22.00;19.50;;;;;17.58;69.37;99541.66;5077252;27;45452;-60
2022/05/14 04:50:05;;;;;;;;;23.25;21.75;;;;;17.61;69.23;99541.44;5085496;27;45437;-57
2022/05/14 04:52:31;;;;;;;;;20.00;19.00;;;;;17.65;69.10;99543.84;5080244;27;45562;-57
2022/05/14 04:54:57;;;;;;;;;19.50;17.25;;;;;17.68;68.74;99553.47;5073546;27;45349;-58
2022/05/14 04:57:22;;;;;;;;;23.25;21.00;;;;;17.68;69.12;99551.66;5074012;28;45529;-57
2022/05/14 04:59:47;;;;;;;;;17.00;16.00;;;;;17.66;68.84;99550.03;5085515;27;45506;-57
2022/05/14 05:04:57;;;;;;;;;19.50;17.25;;;;;17.62;69.65;99559.16;5081296;27;45415;-57
2022/05/14 05:07:22;;;;;;;;;19.75;19.75;;;;;17.61;69.36;99562.75;5071405;28;45414;-57
2022/05/14 05:09:48;;;;;;;;;18.50;18.50;;;;;17.61;69.37;99571.63;5085545;27;45305;-57
2022/05/14 05:12:14;;;;;;;;;17.50;17.00;;;;;17.65;69.69;99567.00;5096796;27;45552;-58
2022/05/14 05:14:41;;;;;;;;;19.75;18.50;;;;;17.67;69.72;99571.28;5092287;27;46545;-57
2022/05/14 05:17:07;;;;;;;;;21.50;18.75;;;;;17.67;70.08;99570.44;5092410;27;45258;-57
2022/05/14 05:19:32;;;;;;;;;20.50;18.25;;;;;17.66;69.89;99571.38;5075391;27;45529;-58
2022/05/14 05:21:58;;;;;;;;;21.25;19.00;;;;;17.68;69.97;99573.00;5088667;27;45461;-57
2022/05/14 05:24:23;;;;;;;;;20.75;19.25;;;;;17.70;70.33;99573.75;5082285;27;45533;-57
2022/05/14 05:26:49;;;;;;;;;20.50;19.00;;;;;17.71;69.96;99572.81;5088091;27;45539;-57
2022/05/14 05:29:23;;;;;;;;;16.75;16.25;;;;;17.75;69.97;99576.16;5084589;27;45419;-57
2022/05/14 05:31:49;;;;;;;;;22.50;21.25;;;;;17.79;69.69;99577.66;5078183;27;45514;-57
2022/05/14 05:34:14;;;;;;;;;18.75;18.75;;;;;17.85;69.56;99571.09;5082050;27;46795;-57
2022/05/14 05:36:40;;;;;;;;;19.75;18.75;;;;;17.90;69.58;99569.84;5093614;27;45602;-57
2022/05/14 05:39:06;;;;;;;;;16.00;16.00;;;;;17.97;69.51;99575.66;5083145;27;45971;-56
2022/05/14 05:41:31;;;;;;;;;23.00;18.25;;;;;18.04;69.41;99583.19;5093605;27;45444;-57
2022/05/14 05:43:57;;;;;;;;;18.25;18.00;;;;;18.12;68.75;99580.00;5090536;27;45982;-57
2022/05/14 05:46:22;;;;;;;;;18.75;18.50;;;;;18.17;68.03;99585.91;5074625;27;45361;-57
2022/05/14 05:48:48;;;;;;;;;21.00;18.25;;;;;18.22;67.88;99575.81;5078551;27;45455;-56
2022/05/14 05:51:13;;;;;;;;;25.25;20.25;;;;;18.28;67.75;99578.06;5093518;27;45408;-56
2022/05/14 05:59:07;;;;;;;;;24.50;21.00;;;;;18.32;67.42;99570.72;5084221;27;45339;-58
2022/05/14 06:01:33;;;;;;;;;18.75;16.50;;;;;18.32;67.55;99570.72;5081078;27;45617;-58
2022/05/14 06:04:08;;;;;;;;;19.75;19.50;;;;;18.33;67.66;99570.63;5091127;27;45716;-57
2022/05/14 06:06:33;;;;;;;;;24.25;22.50;;;;;18.36;67.41;99566.91;5089605;27;45421;-57
2022/05/14 06:08:59;;;;;;;;;20.50;20.25;;;;;18.38;67.02;99573.88;5086698;27;45444;-57
2022/05/14 06:11:25;;;;;;;;;24.00;22.00;;;;;18.41;66.79;99567.47;5091537;27;45632;-57
2022/05/14 06:13:51;;;;;;;;;25.25;22.75;;;;;18.42;66.33;99567.38;5086642;27;46472;-57
2022/05/14 06:16:16;;;;;;;;;24.00;21.75;;;;;18.44;66.17;99572.59;5089535;27;45546;-57
2022/05/14 06:18:42;;;;;;;;;21.00;20.50;;;;;18.47;66.67;99569.72;5090521;27;45483;-57
2022/05/14 06:21:08;;;;;;;;;26.75;22.00;;;;;18.52;66.52;99572.97;5083636;27;45457;-58
2022/05/14 06:23:34;;;;;;;;;28.25;22.25;;;;;18.56;66.02;99568.28;5087447;27;46536;-58
2022/05/14 06:26:00;;;;;;;;;19.25;18.50;;;;;18.59;66.11;99566.31;5092149;27;45515;-57
2022/05/14 06:28:25;;;;;;;;;21.50;19.50;;;;;18.66;66.03;99562.25;5094912;27;45495;-58
2022/05/14 06:30:51;;;;;;;;;20.00;18.50;;;;;18.74;65.44;99562.63;5085076;27;45483;-57
2022/05/14 06:33:17;;;;;;;;;16.75;16.75;;;;;18.81;64.86;99569.25;5070839;27;45456;-58
2022/05/14 06:35:44;;;;;;;;;24.00;21.00;;;;;18.89;64.93;99563.41;5089769;27;45437;-58
2022/05/14 06:38:19;;;;;;;;;17.25;16.00;;;;;18.97;64.85;99563.75;5084193;27;45405;-58
2022/05/14 06:40:45;;;;;;;;;22.00;20.50;;;;;19.04;65.16;99557.03;5090653;27;45337;-57
2022/05/14 06:43:11;;;;;;;;;26.75;20.50;;;;;19.11;64.92;99566.31;5079192;27;46387;-57
2022/05/14 06:45:36;;;;;;;;;21.25;20.75;;;;;19.17;64.47;99567.72;5081882;27;45324;-61
2022/05/14 06:48:02;;;;;;;;;8.50;8.50;;;;;19.24;64.66;99563.69;5091485;27;46020;-61
2022/05/14 06:50:33;;;;;;;;;19.25;19.25;;;;;19.31;63.91;99556.09;5075078;27;45535;-61
2022/05/14 06:53:02;;;;;;;;;21.75;20.00;;;;;19.37;64.28;99559.22;5074250;27;45554;-62
2022/05/14 06:55:34;;;;;;;;;21.25;21.25;;;;;19.43;64.05;99555.25;5074263;28;45435;-61
2022/05/14 06:58:00;;;;;;;;;22.50;21.75;;;;;19.47;63.66;99552.25;5082973;27;45510;-61
2022/05/14 07:00:26;;;;;;;;;21.25;19.75;;;;;19.51;64.03;99556.47;5081463;27;45478;-61
2022/05/14 07:02:52;;;;;;;;;18.00;16.25;;;;;19.56;63.50;99555.28;5093696;27;45399;-61
2022/05/14 07:08:02;;;;;;;;;23.50;19.50;;;;;19.68;63.24;99541.91;5093995;27;45473;-61
2022/05/14 07:10:28;;;;;;;;;22.00;19.00;;;;;19.75;63.34;99545.88;5089014;27;45511;-61
2022/05/14 07:12:55;;;;;;;;;19.25;18.50;;;;;19.81;63.30;99541.88;5090766;27;46107;-61
2022/05/14 07:15:21;;;;;;;;;20.75;20.25;;;;;19.88;63.20;99536.97;5092910;27;45514;-61
2022/05/14 07:17:46;;;;;;;;;18.50;16.75;;;;;19.93;62.64;99534.81;5093372;27;45480;-61
2022/05/14 07:20:12;;;;;;;;;21.50;21.00;;;;;19.98;62.82;99538.00;5073838;28;45396;-61
2022/05/14 07:22:47;;;;;;;;;19.75;19.75;;;;;20.02;62.42;99526.09;5073422;28;45597;-61
2022/05/14 07:25:12;;;;;;;;;24.50;20.25;;;;;20.08;62.47;99528.34;5077168;27;45586;-61
2022/05/14 07:27:37;;;;;;;;;20.00;19.50;;;;;20.12;62.38;99521.78;5078446;27;45407;-61
2022/05/14 07:30:03;;;;;;;;;20.75;20.50;;;;;20.18;62.12;99526.69;5085503;27;45460;-61
2022/05/14 07:32:28;;;;;;;;;22.25;20.50;;;;;20.25;62.03;99527.13;5074303;27;45470;-61
2022/05/14 07:34:54;;;;;;;;;24.75;23.75;;;;;20.31;61.87;99522.16;5073977;27;45434;-61
2022/05/14 07:37:27;;;;;;;;;24.75;22.50;;;;;20.37;61.63;99515.53;5089154;27;46082;-61
2022/05/14 07:40:06;;;;;;;;;28.50;25.00;;;;;20.39;61.97;99516.28;5082620;27;45632;-66
2022/05/14 07:42:46;;;;;;;;;23.50;18.50;;;;;20.44;61.71;99506.09;5090578;27;47683;-68
2022/05/14 07:45:18;;;;;;;;;22.50;21.50;;;;;20.47;61.33;99511.19;5092075;27;45396;-68
2022/05/14 07:47:45;;;;;;;;;19.00;16.75;;;;;20.48;61.74;99510.22;5094672;27;45451;-69
2022/05/14 07:50:13;;;;;;;;;20.00;19.00;;;;;20.49;61.50;99502.06;5092854;27;45430;-68
2022/05/14 07:52:39;;;;;;;;;21.75;21.25;;;;;20.50;60.91;99509.16;5094162;27;45445;-68
2022/05/14 07:55:05;;;;;;;;;21.25;18.75;;;;;20.49;60.87;99512.78;5093943;27;45368;-68
2022/05/14 07:57:31;;;;;;;;;18.25;16.25;;;;;20.49;60.84;99509.25;5092700;27;45257;-69
2022/05/14 07:59:57;;;;;;;;;22.00;19.00;;;;;20.48;61.19;99511.06;5084025;27;45497;-69
2022/05/14 08:02:26;;;;;;;;;19.50;18.00;;;;;20.47;60.94;99513.88;5088985;27;46162;-68
2022/05/14 08:04:52;;;;;;;;;21.75;19.75;;;;;20.46;61.05;99514.84;5093064;27;45436;-69
2022/05/14 08:07:18;;;;;;;;;19.00;19.00;;;;;20.46;60.58;99518.38;5094611;27;45337;-70
2022/05/14 08:09:43;;;;;;;;;21.75;19.75;;;;;20.49;60.71;99519.97;5094058;27;45499;-71
2022/05/14 08:12:11;;;;;;;;;21.25;18.50;;;;;20.51;60.92;99513.53;5084234;27;46525;-71
2022/05/14 08:14:39;;;;;;;;;22.25;19.00;;;;;20.57;60.52;99522.94;5093136;27;45353;-71
2022/05/14 08:17:06;;;;;;;;;21.25;19.00;;;;;20.61;60.86;99523.56;5077672;27;45586;-71
2022/05/14 08:19:32;;;;;;;;;19.00;17.75;;;;;20.61;60.56;99526.25;5090098;27;45561;-71
2022/05/14 08:24:42;;;;;;;;;18.50;16.00;;;;;20.65;61.06;99525.88;5083973;27;45649;-70
2022/05/14 08:27:09;;;;;;;;;22.75;20.00;;;;;20.69;60.94;99524.69;5088211;27;45384;-70
2022/05/14 08:29:35;;;;;;;;;19.00;18.50;;;;;20.74;60.83;99527.91;5073821;28;45391;-70
2022/05/14 08:32:02;;;;;;;;;17.25;15.50;;;;;20.78;60.54;99531.22;5091225;27;45602;-70
2022/05/14 08:34:27;;;;;;;;;24.25;22.25;;;;;20.81;60.53;99525.59;5073316;28;45505;-71
2022/05/14 08:36:53;;;;;;;;;21.00;19.00;;;;;20.84;60.99;99526.22;5085933;27;45356;-71
2022/05/14 08:39:19;;;;;;;;;23.75;21.25;;;;;20.90;60.38;99517.72;5085624;27;45395;-70
2022/05/14 08:41:47;;;;;;;;;23.75;20.50;;;;;21.01;60.55;99530.28;5072436;27;46203;-70
2022/05/14 08:44:21;;;;;;;;;22.50;22.00;;;;;21.10;60.14;99528.75;5073086;28;45466;-70
2022/05/14 08:46:53;;;;;;;;;23.25;18.25;;;;;21.17;59.96;99524.59;5072248;27;45575;-70
2022/05/14 08:49:41;;;;;;;;;21.75;21.25;;;;;21.23;59.53;99522.34;5092330;27;45438;-57
2022/05/14 08:52:16;;;;;;;;;13.75;13.25;;;;;21.35;59.57;99528.56;5093253;27;45510;-57
2022/05/14 08:54:42;;;;;;;;;22.00;18.50;;;;;21.45;59.87;99515.31;5093138;27;45434;-58
2022/05/14 08:57:19;;;;;;;;;23.25;21.00;;;;;21.54;58.88;99518.13;5093209;27;45523;-57
2022/05/14 08:59:47;;;;;;;;;21.25;21.00;;;;;21.64;59.22;99528.09;5092790;27;45317;-57
2022/05/14 09:02:24;;;;;;;;;19.00;17.50;;;;;21.68;59.27;99522.38;5068453;28;45842;-58
2022/05/14 09:04:55;;;;;;;;;26.50;23.25;;;;;21.71;59.17;99522.16;5076449;28;45412;-58
2022/05/14 09:07:21;;;;;;;;;20.00;18.25;;;;;21.78;58.72;99527.91;5076822;28;45393;-57
2022/05/14 09:09:51;;;;;;;;;17.25;14.25;;;;;21.85;58.46;99515.66;5058726;27;45582;-60
2022/05/14 09:12:21;;;;;;;;;19.50;18.50;;;;;21.92;58.70;99511.53;5083873;27;46173;-59
2022/05/14 09:14:53;;;;;;;;;15.00;14.00;;;;;21.99;58.08;99501.97;5076316;27;45396;-58
2022/05/14 09:17:22;;;;;;;;;16.50;16.50;;;;;22.05;58.13;99500.69;5096110;27;45494;-58
2022/05/14 09:19:50;;;;;;;;;17.00;17.00;;;;;22.12;57.76;99509.97;5096119;27;45425;-58
2022/05/14 09:22:30;;;;;;;;;17.50;16.00;;;;;22.17;57.24;99494.28;5095861;27;45449;-58
2022/05/14 09:25:05;;;;;;;;;14.25;13.25;;;;;22.22;58.14;99510.91;5095730;27;45415;-58
2022/05/14 09:27:39;;;;;;;;;18.00;16.00;;;;;22.29;57.87;99493.28;5092328;27;45293;-58
2022/05/14 09:30:08;;;;;;;;;20.00;18.50;;;;;22.39;57.24;99490.69;5090852;27;45536;-58
2022/05/14 09:32:44;;;;;;;;;19.75;18.25;;;;;22.45;57.10;99479.47;5096228;27;45502;-57
2022/05/14 09:35:11;;;;;;;;;19.00;16.75;;;;;22.54;56.98;99476.84;5095370;27;45609;-58
2022/05/14 09:37:37;;;;;;;;;24.00;19.75;;;;;22.62;57.09;99474.34;5087945;27;45482;-58
2022/05/14 09:40:08;;;;;;;;;22.00;20.25;;;;;22.73;57.07;99469.94;5080207;27;45375;-59
2022/05/14 09:42:41;;;;;;;;;20.25;19.25;;;;;22.83;56.63;99470.88;5090059;27;45544;-58
2022/05/14 09:45:35;;;;;;;;;20.50;20.50;;;;;22.94;56.24;99468.13;5078700;27;45373;-58
2022/05/14 09:48:10;;;;;;;;;15.75;14.25;;;;;23.01;56.06;99457.69;5073249;28;45369;-58
2022/05/14 09:50:35;;;;;;;;;17.75;17.25;;;;;23.06;55.67;99459.00;5057823;28;46040;-58
2022/05/14 09:53:04;;;;;;;;;16.75;16.75;;;;;23.13;55.75;99454.78;5056824;28;46927;-58
2022/05/14 09:55:51;;;;;;;;;24.25;22.50;;;;;23.23;55.59;99452.16;5074756;27;45472;-58
2022/05/14 09:58:52;;;;;;;;;24.25;21.25;;;;;23.29;54.69;99449.78;5074566;28;45502;-58
2022/05/14 10:01:45;;;;;;;;;19.00;18.50;;;;;23.35;53.93;99444.84;5088344;27;45401;-58
2022/05/14 10:04:29;;;;;;;;;20.75;18.75;;;;;23.35;54.49;99443.03;5084945;27;45521;-57
2022/05/14 10:07:04;;;;;;;;;17.75;17.25;;;;;23.41;53.96;99439.81;5095724;27;45462;-58
2022/05/14 10:10:07;;;;;;;;;20.50;19.75;;;;;23.49;53.18;99445.34;5094917;27;45487;-58
2022/05/14 10:12:53;;;;;;;;;18.25;18.25;;;;;23.53;52.45;99446.81;5072751;28;45530;-59
2022/05/14 10:15:45;;;;;;;;;19.50;17.50;;;;;23.52;52.28;99444.25;5092870;27;46520;-58
2022/05/14 10:18:29;;;;;;;;;15.75;14.00;;;;;23.54;51.87;99444.97;5093498;27;45506;-58
2022/05/14 10:21:26;;;;;;;;;21.50;17.00;;;;;23.58;52.18;99438.34;5090185;27;45562;-58
2022/05/14 10:27:14;;;;;;;;;17.00;17.00;;;;;23.71;52.73;99430.00;5095211;27;45825;-58
2022/05/14 10:29:58;;;;;;;;;21.00;16.75;;;;;23.76;52.56;99431.31;5084146;27;45513;-58
2022/05/14 10:32:29;;;;;;;;;17.50;15.50;;;;;23.81;51.67;99431.75;5095597;27;45379;-58
2022/05/14 10:35:29;;;;;;;;;18.00;16.00;;;;;23.87;52.17;99428.50;5095844;27;45380;-58
2022/05/14 10:38:15;;;;;;;;;15.50;13.75;;;;;23.90;52.41;99425.53;5076681;27;45829;-58
2022/05/14 10:40:46;;;;;;;;;19.00;17.00;;;;;23.91;52.27;99429.09;5095123;27;45380;-58
2022/05/14 10:43:44;;;;;;;;;15.50;15.50;;;;;23.91;51.65;99413.78;5095383;27;45264;-58
2022/05/14 10:46:15;;;;;;;;;14.50;14.25;;;;;23.92;51.70;99412.78;5088313;27;45442;-58
2022/05/14 10:48:42;;;;;;;;;20.50;18.50;;;;;23.93;51.76;99405.56;5076733;27;47210;-58
2022/05/14 10:51:12;;;;;;;;;19.00;18.00;;;;;23.96;52.28;99403.41;5095621;27;45531;-58
2022/05/14 10:53:47;;;;;;;;;15.25;14.00;;;;;24.03;52.34;99403.72;5095374;27;45511;-58
2022/05/14 10:56:22;;;;;;;;;16.75;15.25;;;;;24.09;52.66;99399.63;5095537;27;45446;-57
2022/05/14 10:58:59;;;;;;;;;16.25;13.50;;;;;24.16;52.50;99398.91;5095617;27;45519;-57
2022/05/14 11:01:53;;;;;;;;;17.25;16.25;;;;;24.29;51.88;99396.00;5082448;27;45433;-58
2022/05/14 11:04:26;;;;;;;;;17.00;17.00;;;;;24.34;51.83;99394.56;5074539;28;45512;-58
2022/05/14 11:07:01;;;;;;;;;20.00;18.25;;;;;24.41;51.80;99383.22;5074572;28;45431;-58
2022/05/14 11:09:41;;;;;;;;;17.25;17.25;;;;;24.45;51.71;99381.94;5074281;28;46301;-58
2022/05/14 11:12:12;;;;;;;;;21.00;19.50;;;;;24.49;51.86;99384.19;5074360;28;45434;-58
2022/05/14 11:14:51;;;;;;;;;17.25;17.25;;;;;24.51;51.48;99382.19;5075411;28;45430;-58
2022/05/14 11:17:29;;;;;;;;;18.00;15.00;;;;;24.58;51.75;99372.56;5072983;27;45474;-58
2022/05/14 11:20:03;;;;;;;;;18.00;16.50;;;;;24.64;50.80;99381.91;5078656;27;45417;-58
2022/05/14 11:22:36;;;;;;;;;16.60;15.60;;;;;24.66;50.82;99374.53;5094090;27;45514;-58
2022/05/14 11:25:10;;;;;;;;;18.00;16.25;;;;;24.70;50.91;99379.47;5074535;28;45286;-58
2022/05/14 11:27:39;;;;;;;;;18.75;17.25;;;;;24.74;50.56;99379.19;5089029;27;45311;-58
2022/05/14 11:30:10;;;;;;;;;18.25;16.50;;;;;24.77;50.79;99373.53;5093821;27;45522;-56
2022/05/14 11:32:52;;;;;;;;;18.40;15.00;;;;;24.82;50.51;99379.31;5095086;27;45379;-58
2022/05/14 11:35:18;;;;;;;;;13.00;12.00;;;;;24.86;49.99;99368.09;5094580;27;45406;-58
2022/05/14 11:37:48;;;;;;;;;17.75;16.75;;;;;24.86;49.55;99365.41;5057098;27;45551;-58
2022/05/14 11:40:32;;;;;;;;;16.75;15.25;;;;;24.90;50.29;99361.41;5073316;28;45400;-58
2022/05/14 11:43:24;;;;;;;;;18.80;17.20;;;;;24.95;49.85;99348.38;5083284;27;45493;-58
2022/05/14 11:45:58;;;;;;;;;15.25;14.00;;;;;24.99;49.96;99348.91;5073318;27;45433;-58
2022/05/14 11:48:36;;;;;;;;;17.50;16.00;;;;;25.03;49.81;99353.88;5083809;27;45428;-58
2022/05/14 11:51:20;;;;;;;;;15.50;15.50;;;;;25.10;48.50;99350.59;5065217;27;47325;-58